createdAt,value
2022-08-16T00:00:07.164Z,96.92
2022-08-16T00:01:16.346Z,97.41
2022-08-16T00:02:25.523Z,97.9
2022-08-16T00:03:34.695Z,96.43
2022-08-16T00:04:43.867Z,94.97
2022-08-16T00:05:53.030Z,95.21
2022-08-16T00:07:02.213Z,94.97
2022-08-16T00:08:10.394Z,93.26
2022-08-16T00:09:19.563Z,93.75
2022-08-16T00:10:28.737Z,96.43
2022-08-16T00:11:37.908Z,93.01
2022-08-16T00:12:47.086Z,94.23
2022-08-16T00:13:56.257Z,91.55
2022-08-16T00:15:05.441Z,90.57
2022-08-16T00:16:14.596Z,89.59
2022-08-16T00:17:23.778Z,86.91
2022-08-16T00:18:32.942Z,86.66
2022-08-16T00:19:42.118Z,85.2
2022-08-16T00:20:51.279Z,86.18
2022-08-16T00:22:00.454Z,85.2
2022-08-16T00:23:08.647Z,85.2
2022-08-16T00:24:17.830Z,85.44
2022-08-16T00:25:26.989Z,84.47
2022-08-16T00:26:36.160Z,85.2
2022-08-16T00:27:45.349Z,84.22
2022-08-16T00:28:54.510Z,84.22
2022-08-16T00:30:03.685Z,84.71
2022-08-16T00:31:12.857Z,84.96
2022-08-16T00:32:22.028Z,86.91
2022-08-16T00:33:31.200Z,84.71
2022-08-16T00:34:40.371Z,85.2
2022-08-16T00:35:49.542Z,85.44
2022-08-16T00:36:58.711Z,85.2
2022-08-16T00:38:06.901Z,84.47
2022-08-16T00:39:16.081Z,84.96
2022-08-16T00:40:25.249Z,86.66
2022-08-16T00:41:34.430Z,84.47
2022-08-16T00:42:43.595Z,84.47
2022-08-16T00:43:52.763Z,83.74
2022-08-16T00:45:01.933Z,83.25
2022-08-16T00:46:11.110Z,83.98
2022-08-16T00:47:20.286Z,84.71
2022-08-16T00:48:29.465Z,84.96
2022-08-16T00:49:38.624Z,84.47
2022-08-16T00:50:47.806Z,84.47
2022-08-16T00:51:56.973Z,85.2
2022-08-16T00:53:05.163Z,83.25
2022-08-16T00:54:14.334Z,83.98
2022-08-16T00:55:23.516Z,82.76
2022-08-16T00:56:32.688Z,83.25
2022-08-16T00:57:41.864Z,82.27
2022-08-16T00:58:51.030Z,84.71
2022-08-16T00:59:59.226Z,83.74
2022-08-16T01:01:08.388Z,83
2022-08-16T01:02:17.567Z,84.47
2022-08-16T01:03:26.741Z,83.49
2022-08-16T01:04:35.902Z,83.49
2022-08-16T01:05:45.080Z,86.18
2022-08-16T01:06:54.247Z,84.71
2022-08-16T01:08:03.433Z,85.69
2022-08-16T01:09:12.594Z,84.47
2022-08-16T01:10:21.771Z,84.96
2022-08-16T01:11:30.934Z,85.44
2022-08-16T01:12:40.103Z,85.44
2022-08-16T01:13:49.286Z,86.91
2022-08-16T01:14:57.485Z,86.18
2022-08-16T01:16:06.649Z,88.13
2022-08-16T01:17:15.824Z,88.13
2022-08-16T01:18:24.991Z,86.18
2022-08-16T01:20:43.327Z,87.64
2022-08-16T01:21:52.503Z,88.86
2022-08-16T01:23:01.674Z,87.89
2022-08-16T01:24:10.845Z,90.33
2022-08-16T01:25:20.044Z,91.3
2022-08-16T01:26:29.181Z,91.06
2022-08-16T01:27:38.368Z,93.75
2022-08-16T01:28:47.558Z,96.92
2022-08-16T01:29:56.714Z,95.45
2022-08-16T01:31:04.905Z,95.45
2022-08-16T01:32:14.071Z,96.19
2022-08-16T01:33:23.247Z,96.19
2022-08-16T01:34:32.413Z,99.6
2022-08-16T01:35:41.590Z,98.63
2022-08-16T01:36:50.761Z,97.16
2022-08-16T01:37:59.931Z,96.19
2022-08-16T01:39:09.099Z,98.14
2022-08-16T01:40:18.288Z,99.6
2022-08-16T01:41:27.445Z,96.67
2022-08-16T01:42:36.626Z,95.94
2022-08-16T01:43:45.807Z,98.38
2022-08-16T01:44:54.968Z,98.63
2022-08-16T01:46:04.146Z,96.19
2022-08-16T01:47:12.331Z,95.45
2022-08-16T01:48:21.494Z,94.97
2022-08-16T01:49:30.673Z,95.21
2022-08-16T01:50:39.836Z,97.9
2022-08-16T01:51:49.013Z,98.38
2022-08-16T01:52:58.196Z,98.38
2022-08-16T01:54:07.360Z,97.41
2022-08-16T01:55:16.525Z,98.38
2022-08-16T01:56:25.698Z,96.43
2022-08-16T01:57:34.875Z,93.75
2022-08-16T01:58:44.047Z,95.45
2022-08-16T01:59:53.207Z,95.45
2022-08-16T02:01:02.380Z,93.75
2022-08-16T02:02:10.577Z,91.3
2022-08-16T02:03:19.752Z,91.3
2022-08-16T02:04:28.931Z,91.3
2022-08-16T02:05:38.107Z,90.08
2022-08-16T02:06:47.271Z,91.55
2022-08-16T02:07:56.445Z,87.89
2022-08-16T02:09:05.615Z,87.64
2022-08-16T02:10:14.778Z,86.91
2022-08-16T02:11:23.959Z,88.37
2022-08-16T02:12:33.118Z,87.64
2022-08-16T02:13:42.299Z,87.4
2022-08-16T02:14:51.469Z,88.13
2022-08-16T02:16:00.645Z,85.2
2022-08-16T02:17:08.833Z,84.47
2022-08-16T02:18:18.000Z,84.71
2022-08-16T02:19:27.171Z,85.2
2022-08-16T02:20:36.343Z,84.71
2022-08-16T02:21:45.510Z,83.74
2022-08-16T02:22:54.713Z,84.47
2022-08-16T02:24:03.858Z,83
2022-08-16T02:25:13.029Z,81.05
2022-08-16T02:26:22.217Z,82.76
2022-08-16T02:27:31.403Z,83
2022-08-16T02:28:40.590Z,81.78
2022-08-16T02:29:49.731Z,83.74
2022-08-16T02:30:58.893Z,82.03
2022-08-16T02:32:07.094Z,82.27
2022-08-16T02:33:16.261Z,82.76
2022-08-16T02:34:25.423Z,84.22
2022-08-16T02:35:34.593Z,82.76
2022-08-16T02:36:43.768Z,82.03
2022-08-16T02:37:52.952Z,82.51
2022-08-16T02:39:02.115Z,81.29
2022-08-16T02:40:11.282Z,82.27
2022-08-16T02:41:20.455Z,80.56
2022-08-16T02:42:29.629Z,81.78
2022-08-16T02:43:38.804Z,82.76
2022-08-16T02:44:47.977Z,81.29
2022-08-16T02:45:57.153Z,82.03
2022-08-16T02:47:05.342Z,83.74
2022-08-16T02:48:14.506Z,82.27
2022-08-16T02:49:23.676Z,83
2022-08-16T02:50:32.843Z,82.51
2022-08-16T02:52:51.196Z,80.07
2022-08-16T02:54:00.380Z,81.05
2022-08-16T02:55:09.539Z,82.51
2022-08-16T02:56:18.710Z,82.03
2022-08-16T02:57:27.882Z,80.81
2022-08-16T02:58:37.052Z,81.54
2022-08-16T02:59:46.237Z,82.76
2022-08-16T03:00:55.395Z,80.56
2022-08-16T03:02:03.596Z,82.03
2022-08-16T03:03:12.762Z,81.29
2022-08-16T03:04:21.929Z,82.03
2022-08-16T03:05:31.104Z,81.78
2022-08-16T03:06:40.284Z,81.54
2022-08-16T03:07:49.446Z,82.76
2022-08-16T03:08:58.615Z,83.25
2022-08-16T03:10:07.787Z,81.78
2022-08-16T03:11:16.958Z,82.76
2022-08-16T03:12:26.132Z,79.1
2022-08-16T03:13:35.321Z,79.83
2022-08-16T03:15:53.657Z,78.12
2022-08-16T03:17:01.843Z,79.1
2022-08-16T03:18:11.017Z,78.12
2022-08-16T03:19:20.183Z,78.12
2022-08-16T03:20:29.351Z,79.34
2022-08-16T03:21:38.533Z,81.29
2022-08-16T03:22:47.697Z,84.47
2022-08-16T03:23:56.876Z,87.4
2022-08-16T03:25:06.044Z,88.37
2022-08-16T03:26:15.212Z,86.42
2022-08-16T03:27:24.395Z,88.62
2022-08-16T03:28:33.560Z,87.4
2022-08-16T03:29:42.735Z,86.91
2022-08-16T03:30:51.912Z,87.64
2022-08-16T03:32:00.095Z,88.37
2022-08-16T03:33:09.264Z,86.91
2022-08-16T03:34:18.442Z,89.84
2022-08-16T03:35:27.606Z,85.93
2022-08-16T03:36:36.810Z,88.37
2022-08-16T03:37:45.961Z,90.57
2022-08-16T03:38:55.128Z,87.4
2022-08-16T03:40:04.299Z,90.82
2022-08-16T03:41:13.470Z,90.82
2022-08-16T03:42:22.644Z,91.55
2022-08-16T03:43:31.814Z,91.79
2022-08-16T03:44:40.993Z,95.21
2022-08-16T03:45:50.167Z,95.94
2022-08-16T03:46:58.349Z,96.43
2022-08-16T03:48:07.516Z,95.7
2022-08-16T03:49:16.698Z,95.45
2022-08-16T03:50:25.866Z,95.21
2022-08-16T03:52:44.211Z,97.9
2022-08-16T03:53:53.380Z,95.7
2022-08-16T03:55:02.551Z,93.75
2022-08-16T03:56:11.727Z,95.94
2022-08-16T03:57:20.897Z,92.28
2022-08-16T03:58:30.065Z,92.28
2022-08-16T03:59:39.245Z,92.04
2022-08-16T04:00:48.421Z,92.77
2022-08-16T04:01:56.609Z,91.06
2022-08-16T04:03:05.772Z,91.06
2022-08-16T04:04:14.955Z,91.55
2022-08-16T04:05:24.121Z,92.28
2022-08-16T04:06:33.290Z,90.82
2022-08-16T04:07:42.458Z,91.06
2022-08-16T04:08:51.640Z,89.35
2022-08-16T04:10:00.810Z,90.08
2022-08-16T04:11:09.974Z,88.62
2022-08-16T04:12:19.148Z,88.13
2022-08-16T04:13:28.327Z,90.82
2022-08-16T04:14:37.488Z,89.84
2022-08-16T04:15:46.669Z,92.28
2022-08-16T04:16:54.858Z,86.91
2022-08-16T04:18:04.022Z,86.66
2022-08-16T04:19:13.193Z,84.96
2022-08-16T04:20:22.374Z,86.18
2022-08-16T04:21:31.537Z,84.71
2022-08-16T04:22:40.721Z,84.71
2022-08-16T04:23:49.883Z,83.98
2022-08-16T04:24:59.060Z,86.18
2022-08-16T04:26:08.227Z,92.28
2022-08-16T04:27:17.411Z,83.98
2022-08-16T04:28:26.583Z,83
2022-08-16T04:29:35.749Z,83
2022-08-16T04:30:44.908Z,84.47
2022-08-16T04:31:53.116Z,84.71
2022-08-16T04:33:02.273Z,82.27
2022-08-16T04:34:11.450Z,82.51
2022-08-16T04:35:20.614Z,81.29
2022-08-16T04:36:29.785Z,92.28
2022-08-16T04:37:38.972Z,81.29
2022-08-16T04:38:48.141Z,83.25
2022-08-16T04:39:57.315Z,81.29
2022-08-16T04:41:06.486Z,83
2022-08-16T04:42:15.655Z,92.04
2022-08-16T04:43:24.836Z,82.27
2022-08-16T04:44:33.996Z,83.25
2022-08-16T04:45:43.166Z,105.95
2022-08-16T04:46:52.336Z,85.44
2022-08-16T04:48:00.529Z,96.19
2022-08-16T04:49:09.696Z,96.19
2022-08-16T04:50:18.867Z,94.72
2022-08-16T04:51:27.075Z,95.21
2022-08-16T04:52:36.232Z,93.75
2022-08-16T04:53:45.407Z,95.7
2022-08-16T04:54:54.584Z,93.75
2022-08-16T04:56:03.751Z,94.48
2022-08-16T04:57:12.923Z,92.52
2022-08-16T04:58:22.107Z,95.94
2022-08-16T04:59:31.277Z,93.26
2022-08-16T05:00:40.439Z,93.01
2022-08-16T05:01:49.619Z,92.04
2022-08-16T05:02:58.789Z,93.75
2022-08-16T05:04:07.952Z,93.75
2022-08-16T05:05:17.147Z,94.23
2022-08-16T05:06:25.313Z,95.7
2022-08-16T05:07:34.496Z,94.48
2022-08-16T05:08:43.666Z,94.48
2022-08-16T05:09:52.838Z,96.19
2022-08-16T05:11:02.010Z,95.45
2022-08-16T05:12:11.194Z,96.67
2022-08-16T05:13:20.360Z,99.36
2022-08-16T05:14:29.534Z,96.19
2022-08-16T05:15:38.701Z,96.19
2022-08-16T05:16:47.871Z,97.9
2022-08-16T05:17:57.047Z,96.67
2022-08-16T05:19:06.210Z,99.12
2022-08-16T05:20:15.397Z,98.38
2022-08-16T05:21:23.569Z,97.16
2022-08-16T05:22:32.746Z,98.14
2022-08-16T05:23:41.917Z,98.63
2022-08-16T05:24:51.121Z,100.34
2022-08-16T05:26:00.272Z,109.37
2022-08-16T05:27:09.436Z,105.22
2022-08-16T05:28:18.608Z,101.8
2022-08-16T05:29:27.790Z,97.9
2022-08-16T05:30:36.003Z,97.41
2022-08-16T05:31:44.175Z,95.21
2022-08-16T05:32:53.339Z,96.92
2022-08-16T05:34:02.504Z,111.32
2022-08-16T05:35:10.709Z,94.97
2022-08-16T05:36:18.903Z,95.7
2022-08-16T05:37:28.065Z,94.23
2022-08-16T05:38:37.242Z,93.99
2022-08-16T05:39:46.408Z,96.92
2022-08-16T05:40:55.584Z,95.94
2022-08-16T05:42:04.759Z,97.16
2022-08-16T05:43:13.928Z,95.7
2022-08-16T05:44:23.091Z,96.43
2022-08-16T05:45:32.270Z,97.41
2022-08-16T05:46:41.466Z,96.43
2022-08-16T05:47:50.616Z,98.87
2022-08-16T05:48:59.796Z,99.85
2022-08-16T05:50:08.956Z,97.9
2022-08-16T05:51:17.148Z,97.9
2022-08-16T05:52:26.319Z,96.43
2022-08-16T05:53:35.502Z,97.41
2022-08-16T05:54:44.660Z,98.14
2022-08-16T05:55:53.836Z,96.43
2022-08-16T05:57:03.001Z,99.36
2022-08-16T05:58:12.175Z,97.9
2022-08-16T05:59:21.350Z,97.16
2022-08-16T06:00:30.531Z,97.41
2022-08-16T06:01:39.700Z,97.41
2022-08-16T06:02:48.866Z,100.09
2022-08-16T06:03:58.045Z,99.12
2022-08-16T06:05:07.224Z,97.41
2022-08-16T06:06:15.417Z,98.63
2022-08-16T06:07:24.582Z,98.38
2022-08-16T06:08:33.751Z,97.41
2022-08-16T06:09:42.923Z,99.12
2022-08-16T06:10:52.101Z,98.63
2022-08-16T06:12:01.266Z,97.9
2022-08-16T06:13:10.443Z,97.9
2022-08-16T06:14:19.617Z,98.38
2022-08-16T06:15:28.784Z,98.87
2022-08-16T06:16:37.960Z,98.63
2022-08-16T06:17:47.129Z,100.58
2022-08-16T06:18:56.313Z,98.87
2022-08-16T06:20:05.481Z,97.16
2022-08-16T06:21:13.665Z,98.63
2022-08-16T06:22:22.834Z,100.83
2022-08-16T06:23:32.009Z,98.63
2022-08-16T06:24:41.188Z,99.12
2022-08-16T06:25:50.361Z,99.36
2022-08-16T06:26:59.525Z,97.9
2022-08-16T06:28:08.710Z,97.65
2022-08-16T06:29:17.874Z,98.38
2022-08-16T06:30:27.066Z,97.9
2022-08-16T06:31:36.214Z,98.63
2022-08-16T06:32:45.384Z,97.9
2022-08-16T06:33:54.552Z,99.36
2022-08-16T06:35:03.732Z,99.12
2022-08-16T06:36:11.918Z,99.36
2022-08-16T06:37:21.097Z,100.09
2022-08-16T06:38:30.277Z,98.63
2022-08-16T06:39:39.457Z,99.85
2022-08-16T06:40:48.621Z,101.56
2022-08-16T06:41:57.777Z,97.41
2022-08-16T06:43:06.958Z,96.92
2022-08-16T06:44:16.131Z,98.63
2022-08-16T06:45:25.305Z,98.87
2022-08-16T06:46:34.475Z,98.63
2022-08-16T06:47:43.639Z,99.6
2022-08-16T06:48:52.823Z,100.58
2022-08-16T06:50:01.988Z,100.09
2022-08-16T06:51:11.170Z,103.75
2022-08-16T06:52:19.360Z,106.44
2022-08-16T06:53:28.529Z,103.27
2022-08-16T06:54:37.692Z,107.91
2022-08-16T06:55:46.873Z,104.49
2022-08-16T06:56:56.033Z,103.75
2022-08-16T06:58:05.215Z,104.73
2022-08-16T06:59:14.381Z,106.44
2022-08-16T07:00:23.559Z,103.75
2022-08-16T07:01:32.739Z,103.51
2022-08-16T07:02:41.906Z,102.53
2022-08-16T07:03:51.072Z,100.83
2022-08-16T07:05:00.252Z,101.07
2022-08-16T07:06:09.431Z,103.02
2022-08-16T07:07:17.605Z,104
2022-08-16T07:08:26.792Z,100.83
2022-08-16T07:09:35.957Z,103.75
2022-08-16T07:10:45.128Z,102.53
2022-08-16T07:11:54.297Z,101.07
2022-08-16T07:13:03.467Z,103.51
2022-08-16T07:14:12.645Z,103.75
2022-08-16T07:15:21.811Z,104.73
2022-08-16T07:16:30.988Z,101.8
2022-08-16T07:17:40.155Z,103.51
2022-08-16T07:18:49.330Z,101.07
2022-08-16T07:19:58.505Z,102.78
2022-08-16T07:21:07.692Z,103.27
2022-08-16T07:22:16.845Z,103.51
2022-08-16T07:23:25.047Z,103.51
2022-08-16T07:24:34.216Z,102.78
2022-08-16T07:25:43.385Z,101.31
2022-08-16T07:26:52.563Z,103.02
2022-08-16T07:28:01.722Z,103.51
2022-08-16T07:29:10.906Z,104
2022-08-16T07:30:20.061Z,103.02
2022-08-16T07:31:29.250Z,103.02
2022-08-16T07:32:38.427Z,103.75
2022-08-16T07:33:47.594Z,102.53
2022-08-16T07:34:56.761Z,102.05
2022-08-16T07:36:05.930Z,102.53
2022-08-16T07:37:15.107Z,107.17
2022-08-16T07:38:24.275Z,110.83
2022-08-16T07:39:32.471Z,110.59
2022-08-16T07:40:41.640Z,109.61
2022-08-16T07:41:50.818Z,110.1
2022-08-16T07:42:59.990Z,106.68
2022-08-16T07:44:09.151Z,105.46
2022-08-16T07:45:18.327Z,103.75
2022-08-16T07:46:27.505Z,100.34
2022-08-16T07:47:36.678Z,100.09
2022-08-16T07:48:45.847Z,101.8
2022-08-16T07:49:55.018Z,101.31
2022-08-16T07:51:04.202Z,101.8
2022-08-16T07:52:13.383Z,103.75
2022-08-16T07:53:22.544Z,101.8
2022-08-16T07:54:30.738Z,100.83
2022-08-16T07:55:39.906Z,104.73
2022-08-16T07:56:49.070Z,101.8
2022-08-16T07:57:58.245Z,102.05
2022-08-16T07:59:07.411Z,99.6
2022-08-16T08:00:16.591Z,97.9
2022-08-16T08:01:25.763Z,98.63
2022-08-16T08:02:34.947Z,98.63
2022-08-16T08:03:44.112Z,99.36
2022-08-16T08:04:53.284Z,100.09
2022-08-16T08:06:02.459Z,99.85
2022-08-16T08:07:11.636Z,102.53
2022-08-16T08:08:20.802Z,98.14
2022-08-16T08:09:28.984Z,101.07
2022-08-16T08:10:38.148Z,99.36
2022-08-16T08:11:47.342Z,100.58
2022-08-16T08:12:56.501Z,100.34
2022-08-16T08:14:05.673Z,101.07
2022-08-16T08:15:14.844Z,101.8
2022-08-16T08:16:24.043Z,101.07
2022-08-16T08:17:33.197Z,105.22
2022-08-16T08:18:42.367Z,101.8
2022-08-16T08:19:51.537Z,100.34
2022-08-16T08:21:00.714Z,101.31
2022-08-16T08:22:09.892Z,99.6
2022-08-16T08:23:19.067Z,99.85
2022-08-16T08:24:27.247Z,100.34
2022-08-16T08:25:36.415Z,102.05
2022-08-16T08:26:45.589Z,105.22
2022-08-16T08:27:54.759Z,106.93
2022-08-16T08:29:03.941Z,104.98
2022-08-16T08:30:13.104Z,102.53
2022-08-16T08:31:22.274Z,100.58
2022-08-16T08:32:31.449Z,99.6
2022-08-16T08:33:40.631Z,95.45
2022-08-16T08:34:49.803Z,93.99
2022-08-16T08:35:58.969Z,94.97
2022-08-16T08:37:08.151Z,93.75
2022-08-16T08:38:17.308Z,96.19
2022-08-16T08:39:25.501Z,96.19
2022-08-16T08:40:34.677Z,94.72
2022-08-16T08:41:43.867Z,93.5
2022-08-16T08:42:52.054Z,94.48
2022-08-16T08:44:01.210Z,93.01
2022-08-16T08:45:10.394Z,95.94
2022-08-16T08:46:19.553Z,93.5
2022-08-16T08:47:28.742Z,95.7
2022-08-16T08:48:37.906Z,96.43
2022-08-16T08:49:47.076Z,94.72
2022-08-16T08:50:56.250Z,94.48
2022-08-16T08:52:05.439Z,96.92
2022-08-16T08:53:14.604Z,94.97
2022-08-16T08:54:23.777Z,95.21
2022-08-16T08:55:32.953Z,96.19
2022-08-16T08:56:42.137Z,98.87
2022-08-16T08:57:50.315Z,95.45
2022-08-16T08:58:59.476Z,96.92
2022-08-16T09:00:08.647Z,98.87
2022-08-16T09:01:17.829Z,97.16
2022-08-16T09:02:27.001Z,98.14
2022-08-16T09:03:36.171Z,99.6
2022-08-16T09:04:45.333Z,96.43
2022-08-16T09:05:54.507Z,96.43
2022-08-16T09:07:03.693Z,100.09
2022-08-16T09:08:12.866Z,101.07
2022-08-16T09:09:22.027Z,101.07
2022-08-16T09:10:31.205Z,102.53
2022-08-16T09:11:40.390Z,99.36
2022-08-16T09:12:49.541Z,99.36
2022-08-16T09:13:58.726Z,102.53
2022-08-16T09:15:06.914Z,99.6
2022-08-16T09:16:16.082Z,103.75
2022-08-16T09:17:25.258Z,100.58
2022-08-16T09:18:34.429Z,100.83
2022-08-16T09:19:43.607Z,104.49
2022-08-16T09:20:52.772Z,102.53
2022-08-16T09:22:01.944Z,102.53
2022-08-16T09:23:11.108Z,102.78
2022-08-16T09:24:20.283Z,100.58
2022-08-16T09:25:29.462Z,102.05
2022-08-16T09:26:38.623Z,103.51
2022-08-16T09:27:47.808Z,104.98
2022-08-16T09:28:56.987Z,102.53
2022-08-16T09:30:05.172Z,99.85
2022-08-16T09:31:14.347Z,101.8
2022-08-16T09:33:32.681Z,99.36
2022-08-16T09:34:41.854Z,102.05
2022-08-16T09:35:51.029Z,98.63
2022-08-16T09:37:00.202Z,97.9
2022-08-16T09:38:09.373Z,97.9
2022-08-16T09:39:18.552Z,99.85
2022-08-16T09:40:27.716Z,96.67
2022-08-16T09:41:36.893Z,96.19
2022-08-16T09:42:46.062Z,94.97
2022-08-16T09:43:55.233Z,94.97
2022-08-16T09:45:03.425Z,93.99
2022-08-16T09:46:12.600Z,94.72
2022-08-16T09:47:21.778Z,94.97
2022-08-16T09:48:30.947Z,95.94
2022-08-16T09:49:40.126Z,97.16
2022-08-16T09:50:49.288Z,95.94
2022-08-16T09:51:58.459Z,92.28
2022-08-16T09:53:07.633Z,94.72
2022-08-16T09:54:16.809Z,94.48
2022-08-16T09:55:25.973Z,94.97
2022-08-16T09:56:35.155Z,93.99
2022-08-16T09:57:44.327Z,94.97
2022-08-16T09:58:53.508Z,93.75
2022-08-16T10:00:01.676Z,94.48
2022-08-16T10:01:11.038Z,93.26
2022-08-16T10:02:20.038Z,97.65
2022-08-16T10:03:29.204Z,94.97
2022-08-16T10:04:38.404Z,96.67
2022-08-16T10:05:47.560Z,97.41
2022-08-16T10:06:56.719Z,97.16
2022-08-16T10:08:05.895Z,96.43
2022-08-16T10:09:15.064Z,95.7
2022-08-16T10:10:24.242Z,96.67
2022-08-16T10:11:33.408Z,103.27
2022-08-16T10:12:42.593Z,98.87
2022-08-16T10:13:51.754Z,97.41
2022-08-16T10:14:59.943Z,97.9
2022-08-16T10:16:09.120Z,97.9
2022-08-16T10:17:18.306Z,99.12
2022-08-16T10:18:27.470Z,97.41
2022-08-16T10:19:36.647Z,99.36
2022-08-16T10:20:45.821Z,100.58
2022-08-16T10:21:54.979Z,96.19
2022-08-16T10:23:04.154Z,96.92
2022-08-16T10:24:13.340Z,101.07
2022-08-16T10:25:22.498Z,97.16
2022-08-16T10:26:31.678Z,100.09
2022-08-16T10:27:40.844Z,98.38
2022-08-16T10:28:50.022Z,99.36
2022-08-16T10:29:58.206Z,98.38
2022-08-16T10:31:07.387Z,97.65
2022-08-16T10:32:16.578Z,96.92
2022-08-16T10:33:25.747Z,96.19
2022-08-16T10:34:34.905Z,96.67
2022-08-16T10:35:44.065Z,98.63
2022-08-16T10:36:53.254Z,99.36
2022-08-16T10:38:02.414Z,99.36
2022-08-16T10:39:11.618Z,97.9
2022-08-16T10:40:20.765Z,101.8
2022-08-16T10:41:29.942Z,102.53
2022-08-16T10:42:39.114Z,96.92
2022-08-16T10:43:48.295Z,100.09
2022-08-16T10:44:57.458Z,98.14
2022-08-16T10:46:05.782Z,98.14
2022-08-16T10:47:14.808Z,99.85
2022-08-16T10:48:23.993Z,99.6
2022-08-16T10:49:33.162Z,95.94
2022-08-16T10:50:42.348Z,97.41
2022-08-16T10:51:51.504Z,103.27
2022-08-16T10:53:00.684Z,98.63
2022-08-16T10:54:09.856Z,98.14
2022-08-16T10:55:19.029Z,98.38
2022-08-16T10:56:28.198Z,99.12
2022-08-16T10:57:37.371Z,99.36
2022-08-16T10:58:46.539Z,98.87
2022-08-16T10:59:55.715Z,99.12
2022-08-16T11:01:03.912Z,98.87
2022-08-16T11:02:13.072Z,98.63
2022-08-16T11:03:22.254Z,100.09
2022-08-16T11:04:31.418Z,100.34
2022-08-16T11:05:40.608Z,97.16
2022-08-16T11:06:49.789Z,98.38
2022-08-16T11:07:58.965Z,98.63
2022-08-16T11:09:08.121Z,97.16
2022-08-16T11:10:17.283Z,99.12
2022-08-16T11:11:26.451Z,99.36
2022-08-16T11:12:35.645Z,97.41
2022-08-16T11:13:44.800Z,97.41
2022-08-16T11:14:53.992Z,98.14
2022-08-16T11:16:02.164Z,97.41
2022-08-16T11:17:11.344Z,96.43
2022-08-16T11:18:20.517Z,97.16
2022-08-16T11:19:29.690Z,95.94
2022-08-16T11:20:38.857Z,98.14
2022-08-16T11:21:48.037Z,96.67
2022-08-16T11:22:57.197Z,99.12
2022-08-16T11:24:06.372Z,97.9
2022-08-16T11:26:24.725Z,97.41
2022-08-16T11:27:33.890Z,99.12
2022-08-16T11:28:43.062Z,100.34
2022-08-16T11:29:52.244Z,99.12
2022-08-16T11:31:00.444Z,98.63
2022-08-16T11:32:09.599Z,96.92
2022-08-16T11:33:18.768Z,98.14
2022-08-16T11:34:27.952Z,100.09
2022-08-16T11:35:37.122Z,99.12
2022-08-16T11:37:55.466Z,98.63
2022-08-16T11:39:03.664Z,95.21
2022-08-16T11:40:11.846Z,99.36
2022-08-16T11:41:21.010Z,98.63
2022-08-16T11:42:29.223Z,97.9
2022-08-16T11:43:37.413Z,96.67
2022-08-16T11:44:46.567Z,96.92
2022-08-16T11:47:04.927Z,95.94
2022-08-16T11:48:14.088Z,96.67
2022-08-16T11:49:23.276Z,96.92
2022-08-16T11:50:32.438Z,95.21
2022-08-16T11:51:41.619Z,96.67
2022-08-16T11:52:50.790Z,93.75
2022-08-16T11:53:59.957Z,96.67
2022-08-16T11:55:09.142Z,95.7
2022-08-16T11:56:18.314Z,93.01
2022-08-16T11:57:27.476Z,95.7
2022-08-16T11:58:36.644Z,93.01
2022-08-16T11:59:44.834Z,93.5
2022-08-16T12:00:54.021Z,93.26
2022-08-16T12:02:03.178Z,93.75
2022-08-16T12:03:12.362Z,94.48
2022-08-16T12:04:21.533Z,94.48
2022-08-16T12:05:30.704Z,95.21
2022-08-16T12:06:39.880Z,93.75
2022-08-16T12:07:49.043Z,92.52
2022-08-16T12:08:58.215Z,93.01
2022-08-16T12:10:07.398Z,92.77
2022-08-16T12:11:16.568Z,93.26
2022-08-16T12:12:25.737Z,95.94
2022-08-16T12:13:34.923Z,96.19
2022-08-16T12:14:43.095Z,95.45
2022-08-16T12:15:52.271Z,102.53
2022-08-16T12:17:01.450Z,102.78
2022-08-16T12:18:10.619Z,98.87
2022-08-16T12:19:19.784Z,96.19
2022-08-16T12:20:28.970Z,95.45
2022-08-16T12:21:38.145Z,94.97
2022-08-16T12:22:47.309Z,95.7
2022-08-16T12:23:56.496Z,98.63
2022-08-16T12:25:05.668Z,97.16
2022-08-16T12:26:14.846Z,95.7
2022-08-16T12:27:24.005Z,96.92
2022-08-16T12:28:33.188Z,98.87
2022-08-16T12:29:41.374Z,95.7
2022-08-16T12:30:50.542Z,99.12
2022-08-16T12:31:59.714Z,95.21
2022-08-16T12:33:08.893Z,98.63
2022-08-16T12:34:17.078Z,98.14
2022-08-16T12:35:26.265Z,98.38
2022-08-16T12:36:35.435Z,97.16
2022-08-16T12:37:44.606Z,99.12
2022-08-16T12:38:53.783Z,96.67
2022-08-16T12:40:02.955Z,100.58
2022-08-16T12:41:12.123Z,98.38
2022-08-16T12:42:21.294Z,98.63
2022-08-16T12:43:30.463Z,97.16
2022-08-16T12:44:39.641Z,99.12
2022-08-16T12:45:48.829Z,100.58
2022-08-16T12:46:57.982Z,97.16
2022-08-16T12:48:07.161Z,97.9
2022-08-16T12:49:15.353Z,98.38
2022-08-16T12:50:24.516Z,99.6
2022-08-16T12:51:33.695Z,101.56
2022-08-16T12:52:42.866Z,100.09
2022-08-16T12:53:52.039Z,99.6
2022-08-16T12:55:01.209Z,98.63
2022-08-16T12:56:10.378Z,99.36
2022-08-16T12:57:19.556Z,99.36
2022-08-16T12:58:28.723Z,100.09
2022-08-16T12:59:37.901Z,100.34
2022-08-16T13:00:47.076Z,97.9
2022-08-16T13:01:56.253Z,98.38
2022-08-16T13:03:05.425Z,97.9
2022-08-16T13:04:13.605Z,97.16
2022-08-16T13:05:22.779Z,100.34
2022-08-16T13:06:31.961Z,97.41
2022-08-16T13:07:41.125Z,99.6
2022-08-16T13:08:50.303Z,99.36
2022-08-16T13:09:59.495Z,99.85
2022-08-16T13:11:08.655Z,101.07
2022-08-16T13:12:17.842Z,97.65
2022-08-16T13:13:26.996Z,99.36
2022-08-16T13:14:36.166Z,100.58
2022-08-16T13:15:45.345Z,97.41
2022-08-16T13:16:54.519Z,98.14
2022-08-16T13:18:03.694Z,99.12
2022-08-16T13:19:11.873Z,96.92
2022-08-16T13:20:21.056Z,99.12
2022-08-16T13:21:30.226Z,97.9
2022-08-16T13:22:39.397Z,98.14
2022-08-16T13:23:48.580Z,98.14
2022-08-16T13:24:57.743Z,99.12
2022-08-16T13:26:06.924Z,97.16
2022-08-16T13:27:16.095Z,94.72
2022-08-16T13:28:25.251Z,96.43
2022-08-16T13:29:34.434Z,93.75
2022-08-16T13:30:42.632Z,93.75
2022-08-16T13:31:50.822Z,94.23
2022-08-16T13:32:59.996Z,95.7
2022-08-16T13:34:09.162Z,93.01
2022-08-16T13:35:18.333Z,94.72
2022-08-16T13:36:27.506Z,92.77
2022-08-16T13:37:35.703Z,100.58
2022-08-16T13:38:43.886Z,92.77
2022-08-16T13:39:53.074Z,95.45
2022-08-16T13:41:02.247Z,93.26
2022-08-16T13:42:11.412Z,93.01
2022-08-16T13:43:20.588Z,92.04
2022-08-16T13:44:29.762Z,93.5
2022-08-16T13:45:38.933Z,92.28
2022-08-16T13:46:48.100Z,96.92
2022-08-16T13:47:57.274Z,92.52
2022-08-16T13:49:06.445Z,92.77
2022-08-16T13:50:15.623Z,93.75
2022-08-16T13:51:24.801Z,95.21
2022-08-16T13:52:33.969Z,92.52
2022-08-16T13:53:42.148Z,94.48
2022-08-16T13:54:51.329Z,94.48
2022-08-16T13:56:00.502Z,93.75
2022-08-16T13:57:09.674Z,92.52
2022-08-16T13:58:18.846Z,93.75
2022-08-16T13:59:28.014Z,94.97
2022-08-16T14:00:37.192Z,94.97
2022-08-16T14:01:46.366Z,95.21
2022-08-16T14:02:54.549Z,99.12
2022-08-16T14:04:02.749Z,96.67
2022-08-16T14:05:11.918Z,94.48
2022-08-16T14:06:21.080Z,95.21
2022-08-16T14:07:29.297Z,94.72
2022-08-16T14:08:37.469Z,97.16
2022-08-16T14:09:46.645Z,97.65
2022-08-16T14:10:55.816Z,96.19
2022-08-16T14:12:04.995Z,96.92
2022-08-16T14:13:14.156Z,97.16
2022-08-16T14:15:32.509Z,97.9
2022-08-16T14:16:41.689Z,97.65
2022-08-16T14:17:50.872Z,96.19
2022-08-16T14:19:00.029Z,96.92
2022-08-16T14:20:09.211Z,97.41
2022-08-16T14:21:18.375Z,96.67
2022-08-16T14:22:27.550Z,96.92
2022-08-16T14:23:35.737Z,98.38
2022-08-16T14:24:44.913Z,98.63
2022-08-16T14:25:54.086Z,99.12
2022-08-16T14:27:03.266Z,98.14
2022-08-16T14:28:12.422Z,95.45
2022-08-16T14:29:21.614Z,97.41
2022-08-16T14:30:30.776Z,97.16
2022-08-16T14:31:39.949Z,96.43
2022-08-16T14:33:58.297Z,97.16
2022-08-16T14:35:06.488Z,98.87
2022-08-16T14:36:14.683Z,99.85
2022-08-16T14:37:23.859Z,98.63
2022-08-16T14:38:33.022Z,100.58
2022-08-16T14:39:42.190Z,97.9
2022-08-16T14:40:51.356Z,98.87
2022-08-16T14:42:00.531Z,96.92
2022-08-16T14:43:09.704Z,98.87
2022-08-16T14:44:17.906Z,96.67
2022-08-16T14:45:26.092Z,100.09
2022-08-16T14:46:35.260Z,98.38
2022-08-16T14:47:44.445Z,98.14
2022-08-16T14:48:53.604Z,97.16
2022-08-16T14:50:02.784Z,94.72
2022-08-16T14:51:11.951Z,96.43
2022-08-16T14:52:21.126Z,97.41
2022-08-16T14:53:30.318Z,96.43
2022-08-16T14:54:39.471Z,94.48
2022-08-16T14:55:48.640Z,97.16
2022-08-16T14:56:57.814Z,94.97
2022-08-16T14:58:07.004Z,93.99
2022-08-16T14:59:16.170Z,92.28